createdAt,value
2018-04-04T00:00:01.210Z,14.34
2018-04-04T00:00:05.092Z,14.39
2018-04-04T00:00:09.202Z,14.36
2018-04-04T00:00:13.100Z,14.29
2018-04-04T00:00:17.100Z,14.36
2018-04-04T00:00:20.984Z,14.45
2018-04-04T00:00:25.194Z,14.31
2018-04-04T00:00:29.415Z,14.31
2018-04-04T00:00:33.732Z,14.31
2018-04-04T00:00:37.843Z,14.3
2018-04-04T00:00:41.730Z,14.27
2018-04-04T00:00:46.108Z,14.36
2018-04-04T00:00:50.468Z,14.3
2018-04-04T00:00:54.480Z,14.3
2018-04-04T00:00:58.696Z,14.34
2018-04-04T00:01:02.589Z,14.27
2018-04-04T00:01:06.368Z,14.29
2018-04-04T00:01:10.362Z,14.27
2018-04-04T00:01:14.474Z,14.27
2018-04-04T00:01:18.467Z,14.26
2018-04-04T00:01:22.573Z,14.29
2018-04-04T00:01:26.565Z,14.29
2018-04-04T00:01:30.450Z,14.3
2018-04-04T00:01:34.774Z,14.29
2018-04-04T00:01:38.872Z,14.26
2018-04-04T00:01:42.970Z,14.34
2018-04-04T00:01:46.961Z,14.29
2018-04-04T00:01:50.737Z,14.26
2018-04-04T00:01:54.844Z,14.31
2018-04-04T00:01:59.051Z,14.29
2018-04-04T00:02:03.090Z,14.29
2018-04-04T00:02:07.080Z,14.29
2018-04-04T00:02:11.179Z,14.3
2018-04-04T00:02:15.177Z,14.29
2018-04-04T00:02:19.275Z,14.23
2018-04-04T00:02:23.269Z,14.26
2018-04-04T00:02:27.151Z,14.29
2018-04-04T00:02:31.254Z,14.29
2018-04-04T00:02:35.359Z,14.27
2018-04-04T00:02:39.454Z,14.27
2018-04-04T00:02:43.673Z,14.31
2018-04-04T00:02:47.992Z,14.3
2018-04-04T00:02:52.219Z,14.29
2018-04-04T00:02:56.214Z,14.29
2018-04-04T00:03:00.208Z,14.24
2018-04-04T00:03:04.455Z,14.23
2018-04-04T00:03:08.342Z,14.23
2018-04-04T00:03:12.596Z,14.29
2018-04-04T00:03:16.483Z,14.26
2018-04-04T00:03:20.479Z,14.24
2018-04-04T00:03:24.577Z,14.3
2018-04-04T00:03:28.460Z,14.29
2018-04-04T00:03:32.559Z,14.21
2018-04-04T00:03:36.448Z,14.23
2018-04-04T00:03:40.689Z,14.34
2018-04-04T00:03:45.000Z,14.26
2018-04-04T00:03:48.781Z,14.2
2018-04-04T00:03:52.890Z,14.21
2018-04-04T00:03:57.095Z,14.27
2018-04-04T00:04:00.982Z,14.29
2018-04-04T00:04:04.978Z,14.29
2018-04-04T00:04:08.970Z,14.21
2018-04-04T00:04:13.286Z,14.26
2018-04-04T00:04:17.279Z,14.27
2018-04-04T00:04:21.485Z,14.29
2018-04-04T00:04:25.370Z,14.29
2018-04-04T00:04:29.386Z,14.21
2018-04-04T00:04:33.600Z,14.34
2018-04-04T00:04:37.700Z,14.19
2018-04-04T00:04:41.694Z,14.24
2018-04-04T00:04:45.687Z,14.24
2018-04-04T00:04:49.805Z,14.24
2018-04-04T00:04:53.902Z,14.2
2018-04-04T00:04:58.115Z,14.21
2018-04-04T00:05:02.335Z,14.26
2018-04-04T00:05:06.331Z,14.23
2018-04-04T00:05:10.322Z,14.26
2018-04-04T00:05:14.219Z,14.27
2018-04-04T00:05:18.322Z,14.21
2018-04-04T00:05:22.421Z,14.27
2018-04-04T00:05:26.635Z,14.17
2018-04-04T00:05:30.739Z,14.16
2018-04-04T00:05:34.948Z,14.2
2018-04-04T00:05:39.156Z,14.19
2018-04-04T00:05:43.361Z,14.23
2018-04-04T00:05:47.508Z,14.26
2018-04-04T00:05:52.119Z,14.23
2018-04-04T00:05:56.485Z,14.23
2018-04-04T00:06:00.612Z,14.16
2018-04-04T00:06:04.604Z,14.21
2018-04-04T00:06:08.491Z,14.2
2018-04-04T00:06:12.483Z,14.21
2018-04-04T00:06:16.264Z,14.24
2018-04-04T00:06:20.361Z,14.23
2018-04-04T00:06:24.674Z,14.24
2018-04-04T00:06:28.564Z,14.2
2018-04-04T00:06:32.684Z,14.2
2018-04-04T00:06:36.904Z,14.24
2018-04-04T00:06:40.911Z,14.16
2018-04-04T00:06:45.118Z,14.16
2018-04-04T00:06:49.233Z,14.23
2018-04-04T00:06:53.235Z,14.13
2018-04-04T00:06:57.237Z,14.26
2018-04-04T00:07:01.232Z,14.23
2018-04-04T00:07:05.264Z,14.16
2018-04-04T00:07:09.256Z,14.21
2018-04-04T00:07:13.391Z,14.27
2018-04-04T00:07:17.177Z,14.23
2018-04-04T00:07:21.065Z,14.21
2018-04-04T00:07:25.236Z,14.21
2018-04-04T00:07:29.549Z,14.26
2018-04-04T00:07:33.655Z,14.24
2018-04-04T00:07:37.668Z,14.24
2018-04-04T00:07:41.880Z,14.2
2018-04-04T00:07:45.873Z,14.21
2018-04-04T00:07:49.868Z,14.21
2018-04-04T00:07:53.967Z,14.19
2018-04-04T00:07:58.070Z,14.21
2018-04-04T00:08:02.322Z,14.2
2018-04-04T00:08:06.208Z,14.26
2018-04-04T00:08:10.423Z,14.24
2018-04-04T00:08:14.428Z,14.21
2018-04-04T00:08:18.531Z,14.21
2018-04-04T00:08:22.737Z,14.26
2018-04-04T00:08:26.833Z,14.21
2018-04-04T00:08:30.938Z,14.21
2018-04-04T00:08:35.145Z,14.23
2018-04-04T00:08:38.923Z,14.21
2018-04-04T00:08:42.914Z,14.23
2018-04-04T00:08:47.017Z,14.19
2018-04-04T00:08:51.131Z,14.24
2018-04-04T00:08:55.236Z,14.21
2018-04-04T00:08:59.341Z,14.2
2018-04-04T00:09:03.661Z,14.26
2018-04-04T00:09:07.658Z,14.21
2018-04-04T00:09:11.761Z,14.2
2018-04-04T00:09:15.875Z,14.23
2018-04-04T00:09:20.111Z,14.26
2018-04-04T00:09:24.232Z,14.19
2018-04-04T00:09:28.088Z,14.2
2018-04-04T00:09:32.304Z,14.21
2018-04-04T00:09:36.550Z,14.29
2018-04-04T00:09:40.544Z,14.23
2018-04-04T00:09:44.647Z,14.19
2018-04-04T00:09:48.530Z,14.21
2018-04-04T00:09:52.740Z,14.2
2018-04-04T00:09:56.844Z,14.21
2018-04-04T00:10:00.867Z,14.24
2018-04-04T00:10:05.081Z,14.23
2018-04-04T00:10:09.180Z,14.2
2018-04-04T00:10:13.174Z,14.2
2018-04-04T00:10:17.285Z,14.23
2018-04-04T00:10:21.186Z,14.3
2018-04-04T00:10:25.290Z,14.2
2018-04-04T00:10:29.290Z,14.2
2018-04-04T00:10:33.178Z,14.2
2018-04-04T00:10:37.065Z,14.23
2018-04-04T00:10:41.216Z,14.2
2018-04-04T00:10:45.207Z,14.2
2018-04-04T00:10:49.206Z,14.21
2018-04-04T00:10:53.465Z,14.26
2018-04-04T00:10:57.349Z,14.26
2018-04-04T00:11:01.348Z,14.17
2018-04-04T00:11:05.449Z,14.23
2018-04-04T00:11:09.444Z,14.2
2018-04-04T00:11:13.436Z,14.24
2018-04-04T00:11:17.642Z,14.27
2018-04-04T00:11:21.742Z,14.17
2018-04-04T00:11:25.627Z,14.2
2018-04-04T00:11:29.521Z,14.19
2018-04-04T00:11:33.623Z,14.21
2018-04-04T00:11:37.732Z,14.26
2018-04-04T00:11:41.827Z,14.2
2018-04-04T00:11:45.950Z,14.23
2018-04-04T00:11:50.269Z,14.17
2018-04-04T00:11:54.275Z,14.21
2018-04-04T00:11:58.384Z,14.31
2018-04-04T00:12:02.726Z,14.23
2018-04-04T00:12:06.826Z,14.26
2018-04-04T00:12:10.712Z,14.2
2018-04-04T00:12:15.044Z,14.21
2018-04-04T00:12:19.046Z,14.23
2018-04-04T00:12:23.153Z,14.21
2018-04-04T00:12:27.261Z,14.2
2018-04-04T00:12:31.150Z,14.27
2018-04-04T00:12:35.150Z,14.2
2018-04-04T00:12:39.250Z,14.23
2018-04-04T00:12:43.142Z,14.21
2018-04-04T00:12:47.132Z,14.34
2018-04-04T00:12:51.129Z,14.26
2018-04-04T00:12:55.224Z,14.2
2018-04-04T00:12:59.224Z,14.2
2018-04-04T00:13:03.148Z,14.31
2018-04-04T00:13:07.254Z,14.26
2018-04-04T00:13:11.363Z,14.24
2018-04-04T00:13:15.151Z,14.24
2018-04-04T00:13:19.151Z,14.27
2018-04-04T00:13:23.147Z,14.31
2018-04-04T00:13:27.153Z,14.26
2018-04-04T00:13:31.040Z,14.2
2018-04-04T00:13:35.040Z,14.26
2018-04-04T00:13:39.028Z,14.21
2018-04-04T00:13:42.917Z,14.24
2018-04-04T00:13:46.908Z,14.31
2018-04-04T00:13:51.231Z,14.21
2018-04-04T00:13:55.224Z,14.3
2018-04-04T00:13:59.218Z,14.35
2018-04-04T00:14:03.464Z,14.29
2018-04-04T00:14:07.464Z,14.24
2018-04-04T00:14:11.567Z,14.24
2018-04-04T00:14:15.778Z,14.21
2018-04-04T00:14:19.768Z,14.21
2018-04-04T00:14:23.761Z,14.3
2018-04-04T00:14:27.864Z,14.27
2018-04-04T00:14:32.076Z,14.17
2018-04-04T00:14:36.180Z,14.29
2018-04-04T00:14:40.067Z,14.21
2018-04-04T00:14:44.182Z,14.27
2018-04-04T00:14:48.181Z,14.3
2018-04-04T00:14:52.065Z,14.31
2018-04-04T00:14:56.166Z,14.27
2018-04-04T00:15:00.159Z,14.23
2018-04-04T00:15:04.568Z,14.2
2018-04-04T00:15:08.562Z,14.35
2018-04-04T00:15:12.458Z,14.36
2018-04-04T00:15:16.343Z,14.23
2018-04-04T00:15:20.551Z,14.24
2018-04-04T00:15:24.664Z,14.26
2018-04-04T00:15:28.667Z,14.23
2018-04-04T00:15:32.563Z,14.3
2018-04-04T00:15:36.674Z,14.29
2018-04-04T00:15:41.297Z,14.26
2018-04-04T00:15:45.396Z,14.34
2018-04-04T00:15:49.392Z,14.27
2018-04-04T00:15:53.492Z,14.27
2018-04-04T00:15:58.429Z,14.29
2018-04-04T00:16:02.472Z,14.21
2018-04-04T00:16:06.368Z,14.26
2018-04-04T00:16:10.468Z,14.24
2018-04-04T00:16:14.253Z,14.27
2018-04-04T00:16:18.359Z,14.26
2018-04-04T00:16:22.460Z,14.29
2018-04-04T00:16:26.464Z,14.24
2018-04-04T00:16:30.457Z,14.24
2018-04-04T00:16:34.662Z,14.29
2018-04-04T00:16:38.886Z,14.23
2018-04-04T00:16:43.372Z,14.24
2018-04-04T00:16:47.949Z,14.23
2018-04-04T00:16:51.948Z,14.27
2018-04-04T00:16:55.949Z,14.27
2018-04-04T00:16:59.939Z,14.24
2018-04-04T00:17:04.156Z,14.34
2018-04-04T00:17:08.039Z,14.31
2018-04-04T00:17:12.073Z,14.23
2018-04-04T00:17:15.963Z,14.3
2018-04-04T00:17:19.961Z,14.29
2018-04-04T00:17:24.066Z,14.29
2018-04-04T00:17:28.057Z,14.29
2018-04-04T00:17:32.158Z,14.23
2018-04-04T00:17:36.276Z,14.24
2018-04-04T00:17:40.268Z,14.24
2018-04-04T00:17:44.261Z,14.23
2018-04-04T00:17:48.142Z,14.3
2018-04-04T00:17:52.245Z,14.3
2018-04-04T00:17:56.345Z,14.26
2018-04-04T00:18:00.341Z,14.34
2018-04-04T00:18:04.540Z,14.29
2018-04-04T00:18:08.425Z,14.26
2018-04-04T00:18:12.202Z,14.26
2018-04-04T00:18:16.409Z,14.29
2018-04-04T00:18:20.518Z,14.29
2018-04-04T00:18:24.294Z,14.29
2018-04-04T00:18:28.611Z,14.29
2018-04-04T00:18:32.602Z,14.29
2018-04-04T00:18:36.709Z,14.24
2018-04-04T00:18:40.816Z,14.29
2018-04-04T00:18:45.022Z,14.24
2018-04-04T00:18:49.123Z,14.23
2018-04-04T00:18:53.120Z,14.3
2018-04-04T00:18:56.895Z,14.27
2018-04-04T00:19:01.103Z,14.29
2018-04-04T00:19:05.147Z,14.29
2018-04-04T00:19:09.359Z,14.26
2018-04-04T00:19:13.457Z,14.3
2018-04-04T00:19:17.581Z,14.29
2018-04-04T00:19:21.461Z,14.26
2018-04-04T00:19:25.576Z,14.26
2018-04-04T00:19:29.891Z,14.27
2018-04-04T00:19:34.109Z,14.3
2018-04-04T00:19:38.311Z,14.29
2018-04-04T00:19:42.204Z,14.3
2018-04-04T00:19:46.307Z,14.31
2018-04-04T00:19:50.520Z,14.27
2018-04-04T00:19:54.524Z,14.29
2018-04-04T00:19:58.512Z,14.27
2018-04-04T00:20:02.546Z,14.24
2018-04-04T00:20:06.543Z,14.26
2018-04-04T00:20:10.531Z,14.29
2018-04-04T00:20:14.416Z,14.24
2018-04-04T00:20:18.412Z,14.29
2018-04-04T00:20:22.403Z,14.27
2018-04-04T00:20:26.285Z,14.27
2018-04-04T00:20:30.385Z,14.29
2018-04-04T00:20:34.701Z,14.3
2018-04-04T00:20:38.919Z,14.24
2018-04-04T00:20:42.907Z,14.26
2018-04-04T00:20:47.113Z,14.29
2018-04-04T00:20:51.011Z,14.26
2018-04-04T00:20:55.108Z,14.26
2018-04-04T00:20:59.104Z,14.26
2018-04-04T00:21:03.668Z,14.27
2018-04-04T00:21:07.441Z,14.3
2018-04-04T00:21:11.544Z,14.29
2018-04-04T00:21:15.426Z,14.26
2018-04-04T00:21:19.416Z,14.27
2018-04-04T00:21:23.521Z,14.27
2018-04-04T00:21:27.616Z,14.31
2018-04-04T00:21:31.606Z,14.29
2018-04-04T00:21:35.920Z,14.26
2018-04-04T00:21:40.128Z,14.3
2018-04-04T00:21:44.130Z,14.29
2018-04-04T00:21:48.461Z,14.31
2018-04-04T00:21:52.562Z,14.3
2018-04-04T00:21:56.767Z,14.29
2018-04-04T00:22:00.656Z,14.29
2018-04-04T00:22:04.654Z,14.27
2018-04-04T00:22:08.760Z,14.35
2018-04-04T00:22:12.761Z,14.27
2018-04-04T00:22:16.987Z,14.31
2018-04-04T00:22:21.102Z,14.27
2018-04-04T00:22:25.201Z,14.3
2018-04-04T00:22:29.085Z,14.29
2018-04-04T00:22:32.858Z,14.31
2018-04-04T00:22:36.847Z,14.29
2018-04-04T00:22:40.852Z,14.27
2018-04-04T00:22:44.952Z,14.26
2018-04-04T00:22:49.175Z,14.27
2018-04-04T00:22:53.083Z,14.3
2018-04-04T00:22:57.164Z,14.23
2018-04-04T00:23:01.266Z,14.29
2018-04-04T00:23:05.480Z,14.26
2018-04-04T00:23:09.363Z,14.26
2018-04-04T00:23:13.250Z,14.29
2018-04-04T00:23:17.239Z,14.27
2018-04-04T00:23:21.349Z,14.31
2018-04-04T00:23:25.456Z,14.27
2018-04-04T00:23:29.557Z,14.3
2018-04-04T00:23:33.544Z,14.23
2018-04-04T00:23:37.535Z,14.36
2018-04-04T00:23:41.747Z,14.23
2018-04-04T00:23:45.632Z,14.27
2018-04-04T00:23:49.729Z,14.26
2018-04-04T00:23:53.833Z,14.29
2018-04-04T00:23:57.985Z,14.31
2018-04-04T00:24:02.311Z,14.3
2018-04-04T00:24:06.537Z,14.27
2018-04-04T00:24:10.640Z,14.26
2018-04-04T00:24:14.846Z,14.3
2018-04-04T00:24:18.842Z,14.27
2018-04-04T00:24:22.836Z,14.36
2018-04-04T00:24:26.854Z,14.3
2018-04-04T00:24:30.843Z,14.31
2018-04-04T00:24:34.952Z,14.3
2018-04-04T00:24:38.839Z,14.34
2018-04-04T00:24:42.839Z,14.3
2018-04-04T00:24:47.059Z,14.26
2018-04-04T00:24:51.267Z,14.26
2018-04-04T00:24:55.259Z,14.29
2018-04-04T00:24:59.466Z,14.27
2018-04-04T00:25:03.626Z,14.3
2018-04-04T00:25:07.619Z,14.3
2018-04-04T00:25:11.290Z,14.31
2018-04-04T00:25:15.398Z,14.31
2018-04-04T00:25:19.611Z,14.38
2018-04-04T00:25:23.602Z,14.24
2018-04-04T00:25:27.808Z,14.34
2018-04-04T00:25:31.912Z,14.27
2018-04-04T00:25:36.126Z,14.23
2018-04-04T00:25:40.115Z,14.3
2018-04-04T00:25:44.225Z,14.31
2018-04-04T00:25:48.325Z,14.34
2018-04-04T00:25:52.425Z,14.39
2018-04-04T00:25:56.539Z,14.35
2018-04-04T00:26:00.860Z,14.39
2018-04-04T00:26:05.012Z,14.29
2018-04-04T00:26:09.012Z,14.29
2018-04-04T00:26:13.103Z,14.39
2018-04-04T00:26:17.208Z,14.31
2018-04-04T00:26:21.470Z,14.3
2018-04-04T00:26:26.057Z,14.29
2018-04-04T00:26:30.261Z,14.27
2018-04-04T00:26:34.367Z,14.38
2018-04-04T00:26:38.368Z,14.38
2018-04-04T00:26:42.575Z,14.38
2018-04-04T00:26:46.889Z,14.34
2018-04-04T00:26:50.994Z,14.35
2018-04-04T00:26:55.309Z,14.34
2018-04-04T00:26:59.412Z,14.31
2018-04-04T00:27:03.381Z,14.26
2018-04-04T00:27:07.485Z,14.41
2018-04-04T00:27:11.488Z,14.36
2018-04-04T00:27:15.577Z,14.36
2018-04-04T00:27:19.909Z,14.39
2018-04-04T00:27:24.232Z,14.42
2018-04-04T00:27:28.119Z,14.38
2018-04-04T00:27:32.218Z,14.38
2018-04-04T00:27:36.328Z,14.44
2018-04-04T00:27:40.429Z,14.36
2018-04-04T00:27:44.423Z,14.31
2018-04-04T00:27:48.524Z,14.38
2018-04-04T00:27:52.735Z,14.26
2018-04-04T00:27:56.938Z,14.27
2018-04-04T00:28:00.718Z,14.38
2018-04-04T00:28:04.914Z,14.31
2018-04-04T00:28:09.017Z,14.39
2018-04-04T00:28:13.117Z,14.44
2018-04-04T00:28:17.224Z,14.34
2018-04-04T00:28:21.212Z,14.38
2018-04-04T00:28:25.205Z,14.34
2018-04-04T00:28:29.303Z,14.34
2018-04-04T00:28:33.518Z,14.42
2018-04-04T00:28:37.621Z,14.41
2018-04-04T00:28:42.341Z,14.35
2018-04-04T00:28:46.440Z,14.44
2018-04-04T00:28:50.650Z,14.45
2018-04-04T00:28:54.533Z,14.44
2018-04-04T00:28:58.750Z,14.41
2018-04-04T00:29:02.850Z,14.39
2018-04-04T00:29:06.742Z,14.41
2018-04-04T00:29:10.790Z,14.44
2018-04-04T00:29:14.780Z,14.44
2018-04-04T00:29:18.771Z,14.42
2018-04-04T00:29:22.879Z,14.44
2018-04-04T00:29:26.973Z,14.41
2018-04-04T00:29:30.964Z,14.42
2018-04-04T00:29:35.071Z,14.38
2018-04-04T00:29:39.286Z,14.42
2018-04-04T00:29:43.276Z,14.36
2018-04-04T00:29:47.380Z,14.38
2018-04-04T00:29:51.601Z,14.34
2018-04-04T00:29:55.709Z,14.44
2018-04-04T00:29:59.696Z,14.45
2018-04-04T00:30:03.892Z,14.38
2018-04-04T00:30:07.883Z,14.44
2018-04-04T00:30:11.875Z,14.42
2018-04-04T00:30:15.976Z,14.35
2018-04-04T00:30:19.970Z,14.44
2018-04-04T00:30:23.968Z,14.45
2018-04-04T00:30:27.964Z,14.42
2018-04-04T00:30:32.064Z,14.44
2018-04-04T00:30:36.268Z,14.45
2018-04-04T00:30:40.475Z,14.41
2018-04-04T00:30:44.463Z,14.39
2018-04-04T00:30:48.348Z,14.39
2018-04-04T00:30:52.450Z,14.41
2018-04-04T00:30:56.449Z,14.41
2018-04-04T00:31:00.438Z,14.35
2018-04-04T00:31:04.645Z,14.35
2018-04-04T00:31:08.753Z,14.38
2018-04-04T00:31:12.750Z,14.35
2018-04-04T00:31:16.851Z,14.36
2018-04-04T00:31:20.853Z,14.41
2018-04-04T00:31:24.844Z,14.45
2018-04-04T00:31:28.946Z,14.39
2018-04-04T00:31:32.944Z,14.36
2018-04-04T00:31:37.158Z,14.39
2018-04-04T00:31:41.370Z,14.36
2018-04-04T00:31:45.252Z,14.36
2018-04-04T00:31:49.566Z,14.31
2018-04-04T00:31:53.772Z,14.44
2018-04-04T00:31:57.872Z,14.46
2018-04-04T00:32:01.865Z,14.41
2018-04-04T00:32:05.749Z,14.36
2018-04-04T00:32:09.753Z,14.44
2018-04-04T00:32:13.976Z,14.35
2018-04-04T00:32:17.976Z,14.41
2018-04-04T00:32:22.193Z,14.36
2018-04-04T00:32:26.300Z,14.35
2018-04-04T00:32:30.398Z,14.34
2018-04-04T00:32:34.606Z,14.38
2018-04-04T00:32:38.831Z,14.41
2018-04-04T00:32:43.165Z,14.41
2018-04-04T00:32:47.274Z,14.35
2018-04-04T00:32:51.265Z,14.36
2018-04-04T00:32:55.476Z,14.39
2018-04-04T00:32:59.676Z,14.38
2018-04-04T00:33:04.032Z,14.29
2018-04-04T00:33:07.913Z,14.31
2018-04-04T00:33:11.797Z,14.41
2018-04-04T00:33:15.906Z,14.35
2018-04-04T00:33:19.901Z,14.27
2018-04-04T00:33:24.002Z,14.29
2018-04-04T00:33:27.784Z,14.29
2018-04-04T00:33:32.031Z,14.38
2018-04-04T00:33:36.241Z,14.31
2018-04-04T00:33:40.337Z,14.36
2018-04-04T00:33:44.475Z,14.31
2018-04-04T00:33:48.357Z,14.26
2018-04-04T00:33:52.353Z,14.31
2018-04-04T00:33:56.680Z,14.42
2018-04-04T00:34:00.777Z,14.27
2018-04-04T00:34:05.020Z,14.31
2018-04-04T00:34:09.129Z,14.29
2018-04-04T00:34:13.233Z,14.24
2018-04-04T00:34:17.445Z,14.35
2018-04-04T00:34:21.434Z,14.3
2018-04-04T00:34:25.748Z,14.26
2018-04-04T00:34:29.852Z,14.29
2018-04-04T00:34:33.969Z,14.27
2018-04-04T00:34:38.068Z,14.35
2018-04-04T00:34:42.291Z,14.29
2018-04-04T00:34:46.193Z,14.27
2018-04-04T00:34:50.296Z,14.36
2018-04-04T00:34:54.287Z,14.29
2018-04-04T00:34:58.392Z,14.31
2018-04-04T00:35:02.502Z,14.3
2018-04-04T00:35:06.605Z,14.29
2018-04-04T00:35:10.594Z,14.27
2018-04-04T00:35:14.821Z,14.3
2018-04-04T00:35:19.134Z,14.3
2018-04-04T00:35:23.235Z,14.29
2018-04-04T00:35:27.118Z,14.29
2018-04-04T00:35:31.217Z,14.38
2018-04-04T00:35:35.420Z,14.29
2018-04-04T00:35:39.516Z,14.29
2018-04-04T00:35:43.617Z,14.27
2018-04-04T00:35:47.721Z,14.24
2018-04-04T00:35:51.928Z,14.29
2018-04-04T00:35:56.056Z,14.27
2018-04-04T00:36:00.151Z,14.29
2018-04-04T00:36:04.147Z,14.3
2018-04-04T00:36:08.192Z,14.26
2018-04-04T00:36:12.406Z,14.26
2018-04-04T00:36:16.617Z,14.24
2018-04-04T00:36:20.830Z,14.27
2018-04-04T00:36:24.931Z,14.26
2018-04-04T00:36:28.819Z,14.26
2018-04-04T00:36:33.032Z,14.31
2018-04-04T00:36:37.132Z,14.27
2018-04-04T00:36:41.017Z,14.27
2018-04-04T00:36:45.008Z,14.27
2018-04-04T00:36:49.221Z,14.31
2018-04-04T00:36:53.426Z,14.31
2018-04-04T00:36:57.528Z,14.27
2018-04-04T00:37:01.848Z,14.29
2018-04-04T00:37:05.965Z,14.29
2018-04-04T00:37:10.185Z,14.27
2018-04-04T00:37:14.292Z,14.27
2018-04-04T00:37:18.513Z,14.34
2018-04-04T00:37:22.504Z,14.27
2018-04-04T00:37:26.615Z,14.26
2018-04-04T00:37:30.497Z,14.26
2018-04-04T00:37:34.711Z,14.21
2018-04-04T00:37:38.913Z,14.29
2018-04-04T00:37:43.023Z,14.27
2018-04-04T00:37:47.228Z,14.24
2018-04-04T00:37:51.112Z,14.29
2018-04-04T00:37:55.439Z,14.3
2018-04-04T00:37:59.535Z,14.27
2018-04-04T00:38:03.755Z,14.29
2018-04-04T00:38:07.757Z,14.27
2018-04-04T00:38:11.745Z,14.26
2018-04-04T00:38:15.743Z,14.24
2018-04-04T00:38:20.092Z,14.29
2018-04-04T00:38:24.242Z,14.27
2018-04-04T00:38:28.533Z,14.31
2018-04-04T00:38:32.634Z,14.27
2018-04-04T00:38:36.952Z,14.24
2018-04-04T00:38:41.046Z,14.27
2018-04-04T00:38:45.045Z,14.3
2018-04-04T00:38:49.037Z,14.31
2018-04-04T00:38:53.250Z,14.2
2018-04-04T00:38:57.355Z,14.26
2018-04-04T00:39:01.454Z,14.29
2018-04-04T00:39:05.855Z,14.29
2018-04-04T00:39:09.740Z,14.23
2018-04-04T00:39:13.947Z,14.29
2018-04-04T00:39:18.051Z,14.23
2018-04-04T00:39:22.190Z,14.27
2018-04-04T00:39:26.181Z,14.24
2018-04-04T00:39:30.067Z,14.3
2018-04-04T00:40:10.369Z,14.24
2018-04-04T00:40:14.584Z,14.19
2018-04-04T00:40:18.683Z,14.26
2018-04-04T00:40:22.680Z,14.24
2018-04-04T00:40:26.786Z,14.24
2018-04-04T00:40:30.785Z,14.24
2018-04-04T00:40:34.889Z,14.31
2018-04-04T00:40:39.096Z,14.27
2018-04-04T00:40:43.200Z,14.19
2018-04-04T00:40:47.517Z,14.26
2018-04-04T00:40:51.835Z,14.29
2018-04-04T00:40:55.948Z,14.19
2018-04-04T00:41:00.159Z,14.23
2018-04-04T00:41:04.479Z,14.26
2018-04-04T00:41:08.470Z,14.21
2018-04-04T00:41:12.460Z,14.2
2018-04-04T00:41:16.354Z,14.26
2018-04-04T00:41:20.562Z,14.26
2018-04-04T00:41:24.664Z,14.21
2018-04-04T00:41:28.873Z,14.26
2018-04-04T00:41:33.199Z,14.24
2018-04-04T00:41:37.301Z,14.26
2018-04-04T00:41:41.397Z,14.29
2018-04-04T00:41:45.173Z,14.21
2018-04-04T00:41:49.065Z,14.24
2018-04-04T00:41:53.071Z,14.17
2018-04-04T00:41:57.169Z,14.23
2018-04-04T00:42:01.223Z,14.29
2018-04-04T00:42:05.218Z,14.24
2018-04-04T00:42:09.204Z,14.26
2018-04-04T00:42:12.981Z,14.24
2018-04-04T00:42:16.769Z,14.29
2018-04-04T00:42:20.648Z,14.19
2018-04-04T00:42:24.769Z,14.27
2018-04-04T00:42:28.883Z,14.34
2018-04-04T00:42:32.766Z,14.23
2018-04-04T00:42:36.862Z,14.23
2018-04-04T00:42:40.748Z,14.24
2018-04-04T00:42:44.524Z,14.3
2018-04-04T00:42:48.625Z,14.21
2018-04-04T00:42:52.827Z,14.23
2018-04-04T00:42:57.204Z,14.26
2018-04-04T00:43:01.305Z,14.2
2018-04-04T00:43:05.138Z,14.17
2018-04-04T00:43:09.234Z,14.21
2018-04-04T00:43:13.115Z,14.23
2018-04-04T00:43:17.431Z,14.27
2018-04-04T00:43:21.641Z,14.26
2018-04-04T00:43:25.526Z,14.2
2018-04-04T00:43:29.522Z,14.21
2018-04-04T00:43:33.628Z,14.19
2018-04-04T00:43:37.840Z,14.21
2018-04-04T00:43:41.946Z,14.26
2018-04-04T00:43:45.940Z,14.17
2018-04-04T00:43:50.043Z,14.21
2018-04-04T00:43:54.143Z,14.24
2018-04-04T00:43:58.026Z,14.13
2018-04-04T00:44:02.225Z,14.21
2018-04-04T00:44:06.342Z,14.31
2018-04-04T00:44:10.462Z,14.19
2018-04-04T00:44:14.460Z,14.2
2018-04-04T00:44:18.666Z,14.21
2018-04-04T00:44:22.783Z,14.21
2018-04-04T00:44:26.994Z,14.19
2018-04-04T00:44:31.093Z,14.27
2018-04-04T00:44:35.408Z,14.19
2018-04-04T00:44:39.408Z,14.2
2018-04-04T00:44:43.292Z,14.27
2018-04-04T00:44:47.413Z,14.24
2018-04-04T00:44:51.621Z,14.21
2018-04-04T00:44:55.729Z,14.21
2018-04-04T00:44:59.638Z,14.21
2018-04-04T00:45:03.681Z,14.13
2018-04-04T00:45:07.785Z,14.2
2018-04-04T00:45:12.106Z,14.23
2018-04-04T00:45:16.322Z,14.23
2018-04-04T00:45:20.312Z,14.19
2018-04-04T00:45:24.516Z,14.2
2018-04-04T00:45:28.617Z,14.19
2018-04-04T00:45:32.500Z,14.26
2018-04-04T00:45:36.595Z,14.2
2018-04-04T00:45:40.693Z,14.19
2018-04-04T00:45:44.793Z,14.23
2018-04-04T00:45:49.055Z,14.23
2018-04-04T00:45:53.261Z,14.23
2018-04-04T00:45:57.146Z,14.26
2018-04-04T00:46:01.350Z,14.23
2018-04-04T00:46:05.904Z,14.21
2018-04-04T00:46:09.908Z,14.19
2018-04-04T00:46:13.916Z,14.08
2018-04-04T00:46:17.921Z,14.16
2018-04-04T00:46:22.023Z,14.24
2018-04-04T00:46:25.910Z,14.24
2018-04-04T00:46:29.897Z,14.23
2018-04-04T00:46:34.001Z,14.23
2018-04-04T00:46:38.208Z,14.16
2018-04-04T00:46:42.202Z,14.19
2018-04-04T00:46:46.427Z,14.26
2018-04-04T00:46:50.531Z,14.23
2018-04-04T00:46:54.639Z,14.21
2018-04-04T00:46:58.854Z,14.26
2018-04-04T00:47:03.095Z,14.17
2018-04-04T00:47:07.093Z,14.17
2018-04-04T00:47:11.206Z,14.17
2018-04-04T00:47:15.304Z,14.29
2018-04-04T00:47:19.295Z,14.26
2018-04-04T00:47:24.122Z,14.17
2018-04-04T00:47:28.113Z,14.2
2018-04-04T00:47:32.005Z,14.26
2018-04-04T00:47:36.106Z,14.24
2018-04-04T00:47:40.204Z,14.16
2018-04-04T00:47:44.470Z,14.17
2018-04-04T00:47:48.612Z,14.17
2018-04-04T00:47:52.497Z,14.16
2018-04-04T00:47:56.704Z,14.21
2018-04-04T00:48:00.803Z,14.17
2018-04-04T00:48:04.738Z,14.19
2018-04-04T00:48:08.734Z,14.17
2018-04-04T00:48:13.045Z,14.17
2018-04-04T00:48:16.927Z,14.17
2018-04-04T00:48:21.249Z,14.17
2018-04-04T00:48:25.347Z,14.16
2018-04-04T00:48:29.337Z,14.24
2018-04-04T00:48:33.225Z,14.17
2018-04-04T00:48:37.212Z,14.17
2018-04-04T00:48:41.208Z,14.2
2018-04-04T00:48:45.520Z,14.24
2018-04-04T00:48:49.508Z,14.17
2018-04-04T00:48:53.617Z,14.2
2018-04-04T00:48:57.818Z,14.27
2018-04-04T00:49:02.030Z,14.2
2018-04-04T00:49:06.030Z,14.26
2018-04-04T00:49:10.035Z,14.19
2018-04-04T00:49:14.146Z,14.17
2018-04-04T00:49:18.369Z,14.13
2018-04-04T00:49:22.472Z,14.12
2018-04-04T00:49:26.611Z,14.21
2018-04-04T00:49:30.605Z,14.17
2018-04-04T00:49:34.707Z,14.16
2018-04-04T00:49:38.969Z,14.12
2018-04-04T00:49:43.081Z,14.12
2018-04-04T00:49:47.069Z,14.16
2018-04-04T00:49:51.065Z,14.16
2018-04-04T00:49:55.164Z,14.13
2018-04-04T00:49:59.049Z,14.17
2018-04-04T00:50:03.355Z,14.13
2018-04-04T00:50:07.352Z,14.11
2018-04-04T00:50:11.683Z,14.19
2018-04-04T00:50:15.785Z,14.16
2018-04-04T00:50:19.999Z,14.21
2018-04-04T00:50:24.111Z,14.16
2018-04-04T00:50:28.314Z,14.16
2018-04-04T00:50:32.202Z,14.23
2018-04-04T00:50:36.308Z,14.12
2018-04-04T00:50:40.511Z,14.19
2018-04-04T00:50:44.505Z,14.2
2018-04-04T00:50:48.501Z,14.16
2018-04-04T00:50:52.386Z,14.2
2018-04-04T00:50:56.716Z,14.21
2018-04-04T00:51:00.709Z,14.13
2018-04-04T00:51:05.225Z,14.16
2018-04-04T00:51:09.437Z,14.17
2018-04-04T00:51:13.646Z,14.21
2018-04-04T00:51:17.975Z,14.13
2018-04-04T00:51:22.079Z,14.2
2018-04-04T00:51:26.401Z,14.16
2018-04-04T00:51:30.613Z,14.13
2018-04-04T00:51:34.615Z,14.17
2018-04-04T00:51:38.726Z,14.12
2018-04-04T00:51:42.727Z,14.12
2018-04-04T00:51:46.716Z,14.2
2018-04-04T00:51:50.810Z,14.19
2018-04-04T00:51:54.802Z,14.19
2018-04-04T00:51:59.122Z,14.17
2018-04-04T00:52:03.315Z,14.11
2018-04-04T00:52:07.319Z,14.16
2018-04-04T00:52:11.422Z,14.16
2018-04-04T00:52:15.639Z,14.16
2018-04-04T00:52:19.746Z,14.11
2018-04-04T00:52:23.965Z,14.2
2018-04-04T00:52:28.188Z,14.12
2018-04-04T00:52:32.183Z,14.08
2018-04-04T00:52:36.283Z,14.11
2018-04-04T00:52:40.610Z,14.11
2018-04-04T00:52:44.822Z,14.13
2018-04-04T00:52:48.826Z,14.11
2018-04-04T00:52:52.824Z,14.08
2018-04-04T00:52:57.031Z,14.13
2018-04-04T00:53:00.914Z,14.16
2018-04-04T00:53:04.689Z,14.06
2018-04-04T00:53:08.576Z,14.13
2018-04-04T00:53:12.354Z,14.06
2018-04-04T00:53:16.352Z,14.11
2018-04-04T00:53:20.452Z,14.17
2018-04-04T00:53:24.447Z,14.16